sensor_id;sensor_type;location;lat;lon;timestamp;pressure;altitude;pressure_sealevel;temperature;humidity
7333;BME280;3707;43.618;25.342;2023-04-26T00:02:15;99124.69;;;14.49;100.00
7333;BME280;3707;43.618;25.342;2023-04-26T00:04:43;99123.00;;;14.45;100.00
7333;BME280;3707;43.618;25.342;2023-04-26T00:07:11;99128.25;;;14.44;100.00
7333;BME280;3707;43.618;25.342;2023-04-26T00:09:40;99127.38;;;14.45;100.00
7333;BME280;3707;43.618;25.342;2023-04-26T00:12:11;99123.78;;;14.52;100.00
7333;BME280;3707;43.618;25.342;2023-04-26T00:14:38;99121.56;;;14.24;100.00
7333;BME280;3707;43.618;25.342;2023-04-26T00:17:05;99131.88;;;14.33;100.00
7333;BME280;3707;43.618;25.342;2023-04-26T00:19:31;99125.03;;;14.25;100.00
7333;BME280;3707;43.618;25.342;2023-04-26T00:21:58;99128.47;;;14.28;100.00
7333;BME280;3707;43.618;25.342;2023-04-26T00:24:26;99131.00;;;14.34;100.00
7333;BME280;3707;43.618;25.342;2023-04-26T00:26:53;99127.59;;;14.29;100.00
7333;BME280;3707;43.618;25.342;2023-04-26T00:29:20;99127.59;;;14.28;100.00
7333;BME280;3707;43.618;25.342;2023-04-26T00:31:47;99121.56;;;14.26;100.00
7333;BME280;3707;43.618;25.342;2023-04-26T00:34:14;99123.41;;;14.16;100.00
7333;BME280;3707;43.618;25.342;2023-04-26T00:36:41;99119.81;;;14.26;100.00
7333;BME280;3707;43.618;25.342;2023-04-26T00:39:08;99118.09;;;14.24;100.00
7333;BME280;3707;43.618;25.342;2023-04-26T00:41:36;99044.78;;;13.90;100.00
7333;BME280;3707;43.618;25.342;2023-04-26T00:44:03;99124.06;;;14.33;100.00
7333;BME280;3707;43.618;25.342;2023-04-26T00:46:30;99122.31;;;14.34;100.00
7333;BME280;3707;43.618;25.342;2023-04-26T00:48:57;99106.94;;;14.14;100.00
7333;BME280;3707;43.618;25.342;2023-04-26T00:51:24;99119.03;;;14.20;100.00
7333;BME280;3707;43.618;25.342;2023-04-26T00:53:51;99110.53;;;14.07;100.00
7333;BME280;3707;43.618;25.342;2023-04-26T00:56:20;99115.75;;;14.09;100.00
7333;BME280;3707;43.618;25.342;2023-04-26T00:58:49;99113.09;;;14.10;100.00
7333;BME280;3707;43.618;25.342;2023-04-26T01:01:16;99121.06;;;14.01;100.00
7333;BME280;3707;43.618;25.342;2023-04-26T01:03:44;99107.22;;;13.96;100.00
7333;BME280;3707;43.618;25.342;2023-04-26T01:06:11;99107.13;;;14.02;100.00
7333;BME280;3707;43.618;25.342;2023-04-26T01:08:38;99118.38;;;14.06;100.00
7333;BME280;3707;43.618;25.342;2023-04-26T01:11:06;99114.13;;;14.00;100.00
7333;BME280;3707;43.618;25.342;2023-04-26T01:13:33;99108.25;;;13.86;100.00
7333;BME280;3707;43.618;25.342;2023-04-26T01:16:01;99105.41;;;14.01;100.00
7333;BME280;3707;43.618;25.342;2023-04-26T01:18:29;99102.16;;;13.87;100.00
7333;BME280;3707;43.618;25.342;2023-04-26T01:20:56;99105.72;;;13.80;100.00
7333;BME280;3707;43.618;25.342;2023-04-26T01:23:24;99103.94;;;13.83;100.00
7333;BME280;3707;43.618;25.342;2023-04-26T01:25:51;99096.19;;;13.79;100.00
7333;BME280;3707;43.618;25.342;2023-04-26T01:28:20;99098.69;;;13.85;100.00
7333;BME280;3707;43.618;25.342;2023-04-26T01:30:47;99073.66;;;13.73;100.00
7333;BME280;3707;43.618;25.342;2023-04-26T01:33:14;99100.38;;;13.89;100.00
7333;BME280;3707;43.618;25.342;2023-04-26T01:35:41;99088.31;;;13.82;100.00
7333;BME280;3707;43.618;25.342;2023-04-26T01:38:08;99089.25;;;13.78;100.00
7333;BME280;3707;43.618;25.342;2023-04-26T01:40:36;99096.88;;;13.90;100.00
7333;BME280;3707;43.618;25.342;2023-04-26T01:43:03;99080.59;;;13.76;100.00
7333;BME280;3707;43.618;25.342;2023-04-26T01:45:30;99059.91;;;13.65;100.00
7333;BME280;3707;43.618;25.342;2023-04-26T01:47:57;99088.38;;;13.77;100.00
7333;BME280;3707;43.618;25.342;2023-04-26T01:50:24;99087.38;;;13.87;100.00
7333;BME280;3707;43.618;25.342;2023-04-26T01:52:51;99086.41;;;13.93;100.00
7333;BME280;3707;43.618;25.342;2023-04-26T01:55:18;99058.03;;;13.73;100.00
7333;BME280;3707;43.618;25.342;2023-04-26T01:57:46;99077.78;;;13.91;100.00
7333;BME280;3707;43.618;25.342;2023-04-26T02:00:13;99068.34;;;13.82;100.00
7333;BME280;3707;43.618;25.342;2023-04-26T02:02:40;99068.25;;;13.88;100.00
7333;BME280;3707;43.618;25.342;2023-04-26T02:05:09;99052.81;;;13.75;100.00
7333;BME280;3707;43.618;25.342;2023-04-26T02:07:37;99064.03;;;13.80;100.00
7333;BME280;3707;43.618;25.342;2023-04-26T02:10:05;99052.81;;;13.73;100.00
7333;BME280;3707;43.618;25.342;2023-04-26T02:12:32;99061.34;;;13.86;100.00
7333;BME280;3707;43.618;25.342;2023-04-26T02:15:00;99055.19;;;13.90;100.00
7333;BME280;3707;43.618;25.342;2023-04-26T02:17:26;99050.97;;;13.81;100.00
7333;BME280;3707;43.618;25.342;2023-04-26T02:19:54;99064.09;;;13.74;100.00
7333;BME280;3707;43.618;25.342;2023-04-26T02:22:21;99059.03;;;13.65;100.00
7333;BME280;3707;43.618;25.342;2023-04-26T02:24:50;99058.91;;;13.74;100.00
7333;BME280;3707;43.618;25.342;2023-04-26T02:27:17;99065.88;;;13.72;100.00
7333;BME280;3707;43.618;25.342;2023-04-26T02:29:44;99068.50;;;13.72;100.00
7333;BME280;3707;43.618;25.342;2023-04-26T02:32:12;99038.16;;;13.68;100.00
7333;BME280;3707;43.618;25.342;2023-04-26T02:34:39;99072.16;;;13.59;100.00
7333;BME280;3707;43.618;25.342;2023-04-26T02:37:07;99062.34;;;13.76;100.00
7333;BME280;3707;43.618;25.342;2023-04-26T02:39:34;99077.94;;;13.79;100.00
7333;BME280;3707;43.618;25.342;2023-04-26T02:42:01;99062.41;;;13.73;100.00
7333;BME280;3707;43.618;25.342;2023-04-26T02:44:28;99071.91;;;13.75;100.00
7333;BME280;3707;43.618;25.342;2023-04-26T02:46:55;99074.53;;;13.74;100.00
7333;BME280;3707;43.618;25.342;2023-04-26T02:49:24;99069.28;;;13.77;100.00
7333;BME280;3707;43.618;25.342;2023-04-26T02:51:50;99072.69;;;13.82;100.00
7333;BME280;3707;43.618;25.342;2023-04-26T02:54:17;99066.59;;;13.81;100.00
7333;BME280;3707;43.618;25.342;2023-04-26T02:56:44;99072.84;;;13.70;100.00
7333;BME280;3707;43.618;25.342;2023-04-26T02:59:11;99066.91;;;13.60;100.00
7333;BME280;3707;43.618;25.342;2023-04-26T03:01:37;99072.06;;;13.63;100.00
7333;BME280;3707;43.618;25.342;2023-04-26T03:04:04;99066.09;;;13.57;100.00
7333;BME280;3707;43.618;25.342;2023-04-26T03:06:32;99068.63;;;13.61;100.00
7333;BME280;3707;43.618;25.342;2023-04-26T03:08:59;99067.91;;;13.52;100.00
7333;BME280;3707;43.618;25.342;2023-04-26T03:11:26;99072.25;;;13.50;100.00
7333;BME280;3707;43.618;25.342;2023-04-26T03:13:53;99072.22;;;13.54;100.00
7333;BME280;3707;43.618;25.342;2023-04-26T03:16:21;99068.88;;;13.41;100.00
7333;BME280;3707;43.618;25.342;2023-04-26T03:18:48;99079.25;;;13.48;100.00
7333;BME280;3707;43.618;25.342;2023-04-26T03:21:15;99080.94;;;13.49;100.00
7333;BME280;3707;43.618;25.342;2023-04-26T03:23:43;99092.13;;;13.57;100.00
7333;BME280;3707;43.618;25.342;2023-04-26T03:26:10;99100.84;;;13.53;100.00
7333;BME280;3707;43.618;25.342;2023-04-26T03:28:37;99093.13;;;13.45;100.00
7333;BME280;3707;43.618;25.342;2023-04-26T03:31:03;99101.81;;;13.46;100.00
7333;BME280;3707;43.618;25.342;2023-04-26T03:33:31;99087.19;;;13.37;100.00
7333;BME280;3707;43.618;25.342;2023-04-26T03:35:57;99101.78;;;13.49;100.00
7333;BME280;3707;43.618;25.342;2023-04-26T03:38:24;99105.25;;;13.49;100.00
7333;BME280;3707;43.618;25.342;2023-04-26T03:40:52;99117.34;;;13.55;100.00
7333;BME280;3707;43.618;25.342;2023-04-26T03:43:19;99102.59;;;13.54;100.00
7333;BME280;3707;43.618;25.342;2023-04-26T03:45:46;99111.19;;;13.62;100.00
7333;BME280;3707;43.618;25.342;2023-04-26T03:48:15;99119.78;;;13.67;100.00
7333;BME280;3707;43.618;25.342;2023-04-26T03:50:42;99105.97;;;13.62;100.00
7333;BME280;3707;43.618;25.342;2023-04-26T03:53:10;99117.22;;;13.65;100.00
7333;BME280;3707;43.618;25.342;2023-04-26T03:55:37;99116.38;;;13.62;100.00
7333;BME280;3707;43.618;25.342;2023-04-26T03:58:05;99130.00;;;13.83;100.00
7333;BME280;3707;43.618;25.342;2023-04-26T04:00:33;99118.09;;;13.63;100.00
7333;BME280;3707;43.618;25.342;2023-04-26T04:02:59;99110.41;;;13.54;100.00
7333;BME280;3707;43.618;25.342;2023-04-26T04:05:27;99139.75;;;13.68;100.00
7333;BME280;3707;43.618;25.342;2023-04-26T04:07:53;99140.56;;;13.71;100.00
7333;BME280;3707;43.618;25.342;2023-04-26T04:10:21;99144.84;;;13.75;100.00
7333;BME280;3707;43.618;25.342;2023-04-26T04:12:48;99122.66;;;13.46;100.00
7333;BME280;3707;43.618;25.342;2023-04-26T04:15:17;99147.56;;;13.68;100.00
7333;BME280;3707;43.618;25.342;2023-04-26T04:17:44;99161.53;;;13.61;100.00
7333;BME280;3707;43.618;25.342;2023-04-26T04:20:11;99157.25;;;13.57;100.00
7333;BME280;3707;43.618;25.342;2023-04-26T04:22:38;99168.53;;;13.56;100.00
7333;BME280;3707;43.618;25.342;2023-04-26T04:25:06;99164.97;;;13.66;100.00
7333;BME280;3707;43.618;25.342;2023-04-26T04:27:33;99161.63;;;13.55;100.00
7333;BME280;3707;43.618;25.342;2023-04-26T04:30:01;99170.53;;;14.03;100.00
7333;BME280;3707;43.618;25.342;2023-04-26T04:32:30;99147.91;;;14.66;95.88
7333;BME280;3707;43.618;25.342;2023-04-26T04:34:58;99173.44;;;15.45;89.38
7333;BME280;3707;43.618;25.342;2023-04-26T04:37:25;99164.28;;;16.10;84.73
7333;BME280;3707;43.618;25.342;2023-04-26T04:39:53;99168.94;;;16.36;81.60
7333;BME280;3707;43.618;25.342;2023-04-26T04:42:19;99162.41;;;17.23;76.44
7333;BME280;3707;43.618;25.342;2023-04-26T04:44:46;99155.59;;;17.16;73.75
7333;BME280;3707;43.618;25.342;2023-04-26T04:47:14;99141.25;;;17.63;73.46
7333;BME280;3707;43.618;25.342;2023-04-26T04:49:43;99142.06;;;17.65;70.72
7333;BME280;3707;43.618;25.342;2023-04-26T04:52:10;99143.22;;;18.13;68.69
7333;BME280;3707;43.618;25.342;2023-04-26T04:54:37;99126.06;;;18.59;64.43
7333;BME280;3707;43.618;25.342;2023-04-26T04:57:04;99138.84;;;18.14;65.97
7333;BME280;3707;43.618;25.342;2023-04-26T04:59:31;99118.19;;;18.03;65.44
7333;BME280;3707;43.618;25.342;2023-04-26T05:01:58;99148.13;;;17.67;66.34
7333;BME280;3707;43.618;25.342;2023-04-26T05:04:24;99139.84;;;17.50;67.58
7333;BME280;3707;43.618;25.342;2023-04-26T05:06:52;99139.56;;;17.60;69.24
7333;BME280;3707;43.618;25.342;2023-04-26T05:09:19;99160.44;;;17.65;68.86
7333;BME280;3707;43.618;25.342;2023-04-26T05:11:46;99121.03;;;17.35;69.14
7333;BME280;3707;43.618;25.342;2023-04-26T05:14:13;99151.97;;;17.54;69.37
7333;BME280;3707;43.618;25.342;2023-04-26T05:16:40;99084.06;;;16.83;70.44
7333;BME280;3707;43.618;25.342;2023-04-26T05:19:07;99156.13;;;16.96;72.96
7333;BME280;3707;43.618;25.342;2023-04-26T05:21:34;99121.91;;;17.04;71.57
7333;BME280;3707;43.618;25.342;2023-04-26T05:24:02;99159.63;;;16.97;75.92
7333;BME280;3707;43.618;25.342;2023-04-26T05:26:29;99155.38;;;17.25;73.84
7333;BME280;3707;43.618;25.342;2023-04-26T05:28:56;99147.31;;;17.00;75.17
7333;BME280;3707;43.618;25.342;2023-04-26T05:31:23;99150.16;;;16.91;76.91
7333;BME280;3707;43.618;25.342;2023-04-26T05:33:50;99146.81;;;16.49;77.65
7333;BME280;3707;43.618;25.342;2023-04-26T05:36:17;99137.47;;;16.39;79.64
7333;BME280;3707;43.618;25.342;2023-04-26T05:38:43;99153.06;;;16.44;80.30
7333;BME280;3707;43.618;25.342;2023-04-26T05:41:12;99153.31;;;16.31;81.29
7333;BME280;3707;43.618;25.342;2023-04-26T05:43:38;99140.19;;;15.96;83.40
7333;BME280;3707;43.618;25.342;2023-04-26T05:46:05;99150.09;;;15.80;85.14
7333;BME280;3707;43.618;25.342;2023-04-26T05:48:32;99149.50;;;15.68;86.63
7333;BME280;3707;43.618;25.342;2023-04-26T05:50:59;99122.34;;;15.30;88.34
7333;BME280;3707;43.618;25.342;2023-04-26T05:53:26;99152.91;;;15.73;87.26
7333;BME280;3707;43.618;25.342;2023-04-26T05:55:52;99144.41;;;15.62;87.10
7333;BME280;3707;43.618;25.342;2023-04-26T05:58:21;99134.78;;;15.64;85.49
7333;BME280;3707;43.618;25.342;2023-04-26T06:00:47;99143.31;;;15.27;87.11
7333;BME280;3707;43.618;25.342;2023-04-26T06:03:14;99149.06;;;15.45;85.93
7333;BME280;3707;43.618;25.342;2023-04-26T06:05:41;99135.97;;;15.46;86.59
7333;BME280;3707;43.618;25.342;2023-04-26T06:08:08;99155.72;;;15.62;84.96
7333;BME280;3707;43.618;25.342;2023-04-26T06:10:35;99152.44;;;15.94;84.93
7333;BME280;3707;43.618;25.342;2023-04-26T06:13:02;99150.56;;;16.01;83.74
7333;BME280;3707;43.618;25.342;2023-04-26T06:15:30;99160.38;;;15.90;83.31
7333;BME280;3707;43.618;25.342;2023-04-26T06:17:57;99159.75;;;15.77;85.22
7333;BME280;3707;43.618;25.342;2023-04-26T06:20:24;99154.44;;;15.81;82.75
7333;BME280;3707;43.618;25.342;2023-04-26T06:22:52;99156.19;;;15.81;82.96
7333;BME280;3707;43.618;25.342;2023-04-26T06:25:18;99161.19;;;15.92;81.41
7333;BME280;3707;43.618;25.342;2023-04-26T06:27:45;99159.59;;;15.86;82.35
7333;BME280;3707;43.618;25.342;2023-04-26T06:30:13;99126.75;;;15.73;80.60
7333;BME280;3707;43.618;25.342;2023-04-26T06:32:41;99153.56;;;15.82;82.91
7333;BME280;3707;43.618;25.342;2023-04-26T06:35:08;99154.81;;;16.05;86.09
7333;BME280;3707;43.618;25.342;2023-04-26T06:37:36;99154.75;;;16.08;80.75
7333;BME280;3707;43.618;25.342;2023-04-26T06:40:03;99143.81;;;16.27;82.81
7333;BME280;3707;43.618;25.342;2023-04-26T06:42:30;99153.31;;;16.31;77.32
7333;BME280;3707;43.618;25.342;2023-04-26T06:44:57;99157.69;;;16.32;77.81
7333;BME280;3707;43.618;25.342;2023-04-26T06:47:24;99153.19;;;16.37;76.98
7333;BME280;3707;43.618;25.342;2023-04-26T06:49:52;99140.75;;;16.10;76.79
7333;BME280;3707;43.618;25.342;2023-04-26T06:52:18;99164.09;;;16.19;77.11
7333;BME280;3707;43.618;25.342;2023-04-26T06:54:47;99176.81;;;16.34;75.67
7333;BME280;3707;43.618;25.342;2023-04-26T06:57:14;99168.63;;;16.10;73.66
7333;BME280;3707;43.618;25.342;2023-04-26T06:59:40;99148.00;;;16.36;73.16
7333;BME280;3707;43.618;25.342;2023-04-26T07:02:07;99171.38;;;16.44;71.88
7333;BME280;3707;43.618;25.342;2023-04-26T07:04:34;99166.16;;;16.42;71.36
7333;BME280;3707;43.618;25.342;2023-04-26T07:07:02;99176.59;;;16.44;73.69
7333;BME280;3707;43.618;25.342;2023-04-26T07:09:29;99165.75;;;16.60;73.36
7333;BME280;3707;43.618;25.342;2023-04-26T07:11:56;99169.53;;;16.84;73.20
7333;BME280;3707;43.618;25.342;2023-04-26T07:14:23;99155.25;;;16.97;72.95
7333;BME280;3707;43.618;25.342;2023-04-26T07:16:49;99161.47;;;16.93;72.42
7333;BME280;3707;43.618;25.342;2023-04-26T07:19:16;99172.59;;;16.66;70.10
7333;BME280;3707;43.618;25.342;2023-04-26T07:21:44;99168.19;;;16.68;71.71
7333;BME280;3707;43.618;25.342;2023-04-26T07:24:12;99157.44;;;16.80;72.04
7333;BME280;3707;43.618;25.342;2023-04-26T07:26:39;99151.63;;;16.67;73.38
7333;BME280;3707;43.618;25.342;2023-04-26T07:29:06;99092.31;;;16.66;69.33
7333;BME280;3707;43.618;25.342;2023-04-26T07:31:33;99182.56;;;16.87;67.45
7333;BME280;3707;43.618;25.342;2023-04-26T07:33:59;99182.59;;;16.85;69.14
7333;BME280;3707;43.618;25.342;2023-04-26T07:36:26;99174.16;;;17.08;65.75
7333;BME280;3707;43.618;25.342;2023-04-26T07:38:53;99151.72;;;16.63;66.24
7333;BME280;3707;43.618;25.342;2023-04-26T07:41:21;99176.28;;;16.94;67.19
7333;BME280;3707;43.618;25.342;2023-04-26T07:43:48;99172.16;;;16.84;65.82
7333;BME280;3707;43.618;25.342;2023-04-26T07:46:15;99174.38;;;16.99;68.19
7333;BME280;3707;43.618;25.342;2023-04-26T07:48:41;99177.97;;;16.95;65.97
7333;BME280;3707;43.618;25.342;2023-04-26T07:51:10;99096.97;;;16.54;64.91
7333;BME280;3707;43.618;25.342;2023-04-26T07:53:37;99163.59;;;16.77;65.27
7333;BME280;3707;43.618;25.342;2023-04-26T07:56:05;99183.47;;;16.86;67.31
7333;BME280;3707;43.618;25.342;2023-04-26T07:58:34;99167.03;;;17.13;66.96
7333;BME280;3707;43.618;25.342;2023-04-26T08:01:02;99162.06;;;17.04;67.13
7333;BME280;3707;43.618;25.342;2023-04-26T08:03:29;99173.91;;;17.17;67.87
7333;BME280;3707;43.618;25.342;2023-04-26T08:05:55;99175.50;;;17.23;65.92
7333;BME280;3707;43.618;25.342;2023-04-26T08:08:24;99174.59;;;17.25;64.89
7333;BME280;3707;43.618;25.342;2023-04-26T08:10:51;99174.78;;;17.18;65.74
7333;BME280;3707;43.618;25.342;2023-04-26T08:13:18;99157.81;;;17.32;65.92
7333;BME280;3707;43.618;25.342;2023-04-26T08:15:47;99175.84;;;17.43;63.25
7333;BME280;3707;43.618;25.342;2023-04-26T08:18:13;99172.63;;;17.33;63.27
7333;BME280;3707;43.618;25.342;2023-04-26T08:20:40;99151.38;;;17.12;63.29
7333;BME280;3707;43.618;25.342;2023-04-26T08:23:07;99173.59;;;17.29;65.97
7333;BME280;3707;43.618;25.342;2023-04-26T08:25:34;99158.47;;;17.39;62.55
7333;BME280;3707;43.618;25.342;2023-04-26T08:28:01;99174.44;;;17.64;62.05
7333;BME280;3707;43.618;25.342;2023-04-26T08:30:29;99167.59;;;17.88;61.50
7333;BME280;3707;43.618;25.342;2023-04-26T08:32:57;99172.22;;;18.09;61.75
7333;BME280;3707;43.618;25.342;2023-04-26T08:35:24;99160.91;;;18.08;60.82
7333;BME280;3707;43.618;25.342;2023-04-26T08:37:51;99164.97;;;17.89;62.14
7333;BME280;3707;43.618;25.342;2023-04-26T08:40:22;99174.13;;;18.04;60.20
7333;BME280;3707;43.618;25.342;2023-04-26T08:42:50;99163.22;;;17.88;59.24
7333;BME280;3707;43.618;25.342;2023-04-26T08:45:18;99175.34;;;17.92;59.76
7333;BME280;3707;43.618;25.342;2023-04-26T08:47:47;99163.75;;;18.28;61.55
7333;BME280;3707;43.618;25.342;2023-04-26T08:50:18;99172.81;;;18.18;60.84
7333;BME280;3707;43.618;25.342;2023-04-26T08:52:47;99170.31;;;18.15;61.29
7333;BME280;3707;43.618;25.342;2023-04-26T08:55:14;99166.91;;;17.82;59.34
7333;BME280;3707;43.618;25.342;2023-04-26T08:57:42;99171.13;;;17.57;61.20
7333;BME280;3707;43.618;25.342;2023-04-26T09:00:12;99155.09;;;17.35;64.60
7333;BME280;3707;43.618;25.342;2023-04-26T09:02:41;99138.22;;;17.46;63.62
7333;BME280;3707;43.618;25.342;2023-04-26T09:05:08;99173.00;;;17.83;60.68
7333;BME280;3707;43.618;25.342;2023-04-26T09:07:39;99166.69;;;17.59;59.93
7333;BME280;3707;43.618;25.342;2023-04-26T09:10:08;99148.78;;;17.43;60.61
7333;BME280;3707;43.618;25.342;2023-04-26T09:12:35;99173.16;;;17.77;60.45
7333;BME280;3707;43.618;25.342;2023-04-26T09:15:02;99170.38;;;17.83;59.45
7333;BME280;3707;43.618;25.342;2023-04-26T09:17:32;99152.84;;;17.85;60.02
7333;BME280;3707;43.618;25.342;2023-04-26T09:20:01;99158.72;;;18.22;61.00
7333;BME280;3707;43.618;25.342;2023-04-26T09:22:43;99171.09;;;18.73;58.88
7333;BME280;3707;43.618;25.342;2023-04-26T09:25:11;99150.97;;;18.73;58.60
7333;BME280;3707;43.618;25.342;2023-04-26T09:27:42;99154.03;;;18.60;58.16
7333;BME280;3707;43.618;25.342;2023-04-26T09:30:12;99145.56;;;18.50;59.52
7333;BME280;3707;43.618;25.342;2023-04-26T09:32:45;99135.44;;;18.66;58.75
7333;BME280;3707;43.618;25.342;2023-04-26T09:35:28;99161.97;;;18.58;59.91
7333;BME280;3707;43.618;25.342;2023-04-26T09:37:58;99172.63;;;18.80;59.53
7333;BME280;3707;43.618;25.342;2023-04-26T09:40:26;99158.38;;;19.13;58.12
7333;BME280;3707;43.618;25.342;2023-04-26T09:42:57;99160.47;;;19.28;59.04
7333;BME280;3707;43.618;25.342;2023-04-26T09:45:25;99151.97;;;19.20;58.22
7333;BME280;3707;43.618;25.342;2023-04-26T09:47:52;99143.41;;;19.40;58.83
7333;BME280;3707;43.618;25.342;2023-04-26T09:50:26;99168.19;;;19.33;58.44
7333;BME280;3707;43.618;25.342;2023-04-26T09:52:53;99159.13;;;19.17;56.52
7333;BME280;3707;43.618;25.342;2023-04-26T09:55:30;99167.22;;;19.11;55.96
7333;BME280;3707;43.618;25.342;2023-04-26T09:57:57;99151.34;;;19.14;56.85
7333;BME280;3707;43.618;25.342;2023-04-26T10:00:26;99154.09;;;19.36;56.09
7333;BME280;3707;43.618;25.342;2023-04-26T10:02:53;99170.53;;;19.41;57.01
7333;BME280;3707;43.618;25.342;2023-04-26T10:05:21;99177.09;;;19.29;56.08
7333;BME280;3707;43.618;25.342;2023-04-26T10:07:48;99152.00;;;18.94;56.09
7333;BME280;3707;43.618;25.342;2023-04-26T10:10:17;99170.53;;;19.16;55.89
7333;BME280;3707;43.618;25.342;2023-04-26T10:12:46;99168.34;;;19.28;56.76
7333;BME280;3707;43.618;25.342;2023-04-26T10:15:14;99165.72;;;19.28;55.22
7333;BME280;3707;43.618;25.342;2023-04-26T10:17:41;99169.91;;;19.59;54.12
7333;BME280;3707;43.618;25.342;2023-04-26T10:20:11;99169.47;;;19.71;54.46
7333;BME280;3707;43.618;25.342;2023-04-26T10:22:43;99163.06;;;19.55;54.53
7333;BME280;3707;43.618;25.342;2023-04-26T10:25:11;99166.72;;;19.00;54.61
7333;BME280;3707;43.618;25.342;2023-04-26T10:27:49;99174.84;;;19.18;55.52
7333;BME280;3707;43.618;25.342;2023-04-26T10:30:20;99177.22;;;19.26;54.31
7333;BME280;3707;43.618;25.342;2023-04-26T10:35:59;99162.50;;;19.93;54.79
7333;BME280;3707;43.618;25.342;2023-04-26T10:38:27;99180.13;;;19.68;54.79
7333;BME280;3707;43.618;25.342;2023-04-26T10:40:54;99173.59;;;19.55;55.79
7333;BME280;3707;43.618;25.342;2023-04-26T10:43:28;99170.53;;;19.41;55.79
7333;BME280;3707;43.618;25.342;2023-04-26T10:46:31;99177.91;;;19.56;54.80
7333;BME280;3707;43.618;25.342;2023-04-26T10:49:11;99183.22;;;19.79;53.82
7333;BME280;3707;43.618;25.342;2023-04-26T10:51:38;99181.88;;;19.67;53.72
7333;BME280;3707;43.618;25.342;2023-04-26T10:54:06;99173.84;;;19.72;53.84
7333;BME280;3707;43.618;25.342;2023-04-26T10:56:51;99168.03;;;19.62;54.30
7333;BME280;3707;43.618;25.342;2023-04-26T10:59:22;99173.69;;;19.52;53.56
7333;BME280;3707;43.618;25.342;2023-04-26T11:01:51;99169.13;;;19.80;51.69
7333;BME280;3707;43.618;25.342;2023-04-26T11:04:18;99180.31;;;20.33;52.04
7333;BME280;3707;43.618;25.342;2023-04-26T11:06:48;99174.66;;;20.42;51.93
7333;BME280;3707;43.618;25.342;2023-04-26T11:09:35;99177.78;;;20.30;51.67
7333;BME280;3707;43.618;25.342;2023-04-26T11:12:06;99175.22;;;19.82;53.10
7333;BME280;3707;43.618;25.342;2023-04-26T11:14:38;99175.19;;;20.05;52.67
7333;BME280;3707;43.618;25.342;2023-04-26T11:17:06;99161.28;;;20.25;57.02
7333;BME280;3707;43.618;25.342;2023-04-26T11:19:34;99153.56;;;20.44;54.82
7333;BME280;3707;43.618;25.342;2023-04-26T11:22:02;99157.91;;;20.21;53.12
7333;BME280;3707;43.618;25.342;2023-04-26T11:24:30;99147.03;;;20.31;56.36
7333;BME280;3707;43.618;25.342;2023-04-26T11:26:58;99145.00;;;20.15;52.44
7333;BME280;3707;43.618;25.342;2023-04-26T11:29:25;99163.06;;;20.01;51.82
7333;BME280;3707;43.618;25.342;2023-04-26T11:31:54;99146.81;;;20.13;52.66
7333;BME280;3707;43.618;25.342;2023-04-26T11:34:21;99155.75;;;20.09;51.54
7333;BME280;3707;43.618;25.342;2023-04-26T11:36:50;99162.41;;;19.96;51.07
7333;BME280;3707;43.618;25.342;2023-04-26T11:39:21;99153.53;;;19.99;50.83
7333;BME280;3707;43.618;25.342;2023-04-26T11:41:48;99152.91;;;19.69;50.77
7333;BME280;3707;43.618;25.342;2023-04-26T11:44:17;99156.44;;;19.68;50.88
7333;BME280;3707;43.618;25.342;2023-04-26T11:46:45;99150.59;;;19.60;51.44
7333;BME280;3707;43.618;25.342;2023-04-26T11:49:14;99146.19;;;19.84;51.03
7333;BME280;3707;43.618;25.342;2023-04-26T11:51:42;99152.00;;;19.93;50.25
7333;BME280;3707;43.618;25.342;2023-04-26T11:54:10;99139.16;;;19.84;50.80
7333;BME280;3707;43.618;25.342;2023-04-26T11:56:37;99146.00;;;19.90;51.74
7333;BME280;3707;43.618;25.342;2023-04-26T11:59:04;99143.03;;;20.20;50.97
7333;BME280;3707;43.618;25.342;2023-04-26T12:01:31;99154.41;;;20.21;50.98
7333;BME280;3707;43.618;25.342;2023-04-26T12:03:58;99141.69;;;19.87;51.48
7333;BME280;3707;43.618;25.342;2023-04-26T12:06:28;99141.31;;;20.19;51.99
7333;BME280;3707;43.618;25.342;2023-04-26T12:09:00;99135.78;;;20.49;50.62
7333;BME280;3707;43.618;25.342;2023-04-26T12:11:27;99153.22;;;20.73;50.68
7333;BME280;3707;43.618;25.342;2023-04-26T12:13:57;99131.03;;;20.78;50.72
7333;BME280;3707;43.618;25.342;2023-04-26T12:16:24;99152.81;;;21.04;50.21
7333;BME280;3707;43.618;25.342;2023-04-26T12:18:51;99132.97;;;20.95;50.27
7333;BME280;3707;43.618;25.342;2023-04-26T12:21:19;99128.75;;;20.91;50.04
7333;BME280;3707;43.618;25.342;2023-04-26T12:23:47;99145.69;;;21.06;50.38
7333;BME280;3707;43.618;25.342;2023-04-26T12:26:14;99116.63;;;21.07;51.51
7333;BME280;3707;43.618;25.342;2023-04-26T12:28:42;99132.63;;;20.83;50.94
7333;BME280;3707;43.618;25.342;2023-04-26T12:31:09;99124.44;;;20.68;52.28
7333;BME280;3707;43.618;25.342;2023-04-26T12:33:36;99119.66;;;20.78;52.33
7333;BME280;3707;43.618;25.342;2023-04-26T12:36:07;99125.31;;;21.09;51.39
7333;BME280;3707;43.618;25.342;2023-04-26T12:38:34;99123.09;;;21.00;51.35
7333;BME280;3707;43.618;25.342;2023-04-26T12:41:03;99044.81;;;20.82;51.33
7333;BME280;3707;43.618;25.342;2023-04-26T12:43:30;99058.91;;;20.61;50.33
7333;BME280;3707;43.618;25.342;2023-04-26T12:45:57;99105.69;;;20.96;50.52
7333;BME280;3707;43.618;25.342;2023-04-26T12:48:23;99111.22;;;20.90;50.43
7333;BME280;3707;43.618;25.342;2023-04-26T12:50:50;99121.56;;;20.53;51.62
7333;BME280;3707;43.618;25.342;2023-04-26T12:53:17;99127.75;;;20.52;52.31
7333;BME280;3707;43.618;25.342;2023-04-26T12:55:44;99131.81;;;20.60;52.40
7333;BME280;3707;43.618;25.342;2023-04-26T12:58:12;99123.16;;;20.57;52.51
7333;BME280;3707;43.618;25.342;2023-04-26T13:00:39;99103.97;;;20.75;51.87
7333;BME280;3707;43.618;25.342;2023-04-26T13:03:06;99121.88;;;20.87;51.42
7333;BME280;3707;43.618;25.342;2023-04-26T13:05:33;99116.44;;;20.92;51.83
7333;BME280;3707;43.618;25.342;2023-04-26T13:08:00;99119.28;;;21.07;51.12
7333;BME280;3707;43.618;25.342;2023-04-26T13:10:27;99125.41;;;21.08;51.58
7333;BME280;3707;43.618;25.342;2023-04-26T13:12:54;99124.16;;;20.96;51.41
7333;BME280;3707;43.618;25.342;2023-04-26T13:15:23;99115.31;;;20.97;51.49